Stafford, VA (22554)

4:06 AM EST on March 03, 2015 (GMT -0500)
Park Ridge/Woods (The Wireman's) | Change Station
CLOSE
Current Station
Personal Weather Station
Location: Stafford, VA
Elevation: 249 ft
Nearby Weather Stations
Active Advisory: Winter Weather Advisory

Elev 249 ft 38.46 °N, 77.45 °W | Updated 19 seconds ago

Partly Cloudy
Partly Cloudy
26.1 °F
Feels Like 26 °F
N
0.0
Wind Variable Wind from NNW
Gusts 0.0 mph

Today
High -- | Low -- °F
--% Chance of Precip.
Yesterday
High -- | Low -- °F
Precip. -- in
6:39 AM 6:04 PM
Waxing Gibbous, 95% visible
Pressure 30.45 in
Visibility 10.0 miles
Clouds Clear
Windchill 26 °F
Dew Point 19 °F
Humidity 73%
Rainfall 0.00 in
Snow Depth Not available.
UV 0 out of 12
Pollen 4.40 out of 12
Air Quality Not available.
Flu Activity Not available.
METAR KRMN 030855Z AUTO 05004KT 10SM CLR M04/M08 A3045 RMK AO2 T10401083

More Conditions Fewer Conditions

Pressure 30.45 in
Visibility 10.0 miles
Clouds Clear
Windchill 26 °F
Dew Point 19 °F
Humidity 73%
Rainfall 0.00 in
Snow Depth Not available.
UV 0 out of 12
Pollen 4.40 out of 12
Air Quality Not available.
Flu Activity Not available.
METAR KRMN 030855Z AUTO 05004KT 10SM CLR M04/M08 A3045 RMK AO2 T10401083

More Conditions Fewer Conditions

10-Day Weather Forecast

Almanac

Astronomy

Mar. 03, 2015 Rise Set
Actual Time
Civil Twilight
Nautical Twilight
Astronomical Twilight
Moon
Length of Visible Light
Length of Day
Tomorrow will be .
, % of the Moon is Illuminated

Today's Extremes

State Highs State Lows

Community

WunderPhotos

Upload Photos

1,802,075 photos uploaded!

WunderBlogs® & News

Nearby

Air Quality

  Air Quality AQ Index Pollutant
Not available.

Snow Depth

Station Depth Elevation

Earthquake Activity

City Distance Mag. Time & Date
Minimum magnitude displayed is 2.5.

Coastal Water Temperatures

Place Temperature

Nearby Weather Stations

Winter Weather Advisory
Statement as of 1:27 AM EST on March 03, 2015

... Winter Weather Advisory now in effect from noon today to 7 PM
EST this evening...

* locations... central Virginia and southern Maryland.

* Hazard types... snow... sleet and freezing rain.

* Accumulations... snow and sleet accumulation of less than half
inch... ... along with a trace of ice.

* Timing... midday Tuesday into Tuesday evening.

* Impacts... roads will be snow and ice covered. Traveling will
be dangerous.

* Winds... south 5 to 10 mph.

* Temperatures... upper 20s... rising into the 30s.

Precautionary/preparedness actions...

A Winter Weather Advisory means that periods of snow... sleet... or
freezing rain will cause travel difficulties. Be prepared for
slippery roads and limited visibilities... and use caution while
driving.